Time;durP1;ratioP1;P1;durP2;ratioP2;P2;SDS_P1;SDS_P2;PMS_P1;PMS_P2;Temp;Humidity;BMP_temperature;BMP_pressure;BME280_temperature;BME280_humidity;BME280_pressure;Samples;Min_cycle;Max_cycle;Signal;HPM_P1;HPM_P2
2023/11/18 00:00:39;;;;;;;30.50;17.60;;;;;;;-147.86;100.00;50906.63;106043;1251;72535;-48
2023/11/18 00:03:06;;;;;;;28.00;17.70;;;;;;;-147.86;100.00;50920.76;106092;1253;60315;-45
2023/11/18 00:05:33;;;;;;;28.40;17.90;;;;;;;-147.86;100.00;50916.83;106080;1250;60529;-48
2023/11/18 00:08:00;;;;;;;29.60;17.50;;;;;;;-147.86;100.00;50903.89;106042;1253;72543;-44
2023/11/18 00:10:29;;;;;;;29.30;17.90;;;;;;;-147.86;100.00;50909.38;106074;1251;65412;-47
2023/11/18 00:12:56;;;;;;;30.10;18.70;;;;;;;-147.86;100.00;50916.44;106062;1251;72578;-44
2023/11/18 00:15:23;;;;;;;31.60;17.80;;;;;;;-147.86;100.00;50902.71;105993;1254;61954;-43
2023/11/18 00:17:50;;;;;;;28.50;17.60;;;;;;;-147.86;100.00;50918.01;106066;1251;60421;-45
2023/11/18 00:20:17;;;;;;;29.80;18.20;;;;;;;-147.86;100.00;50906.24;106067;1251;72410;-44
2023/11/18 00:22:44;;;;;;;26.20;17.10;;;;;;;-147.86;100.00;50908.20;105996;1254;65482;-46
2023/11/18 00:25:14;;;;;;;27.60;18.20;;;;;;;-147.86;100.00;50918.01;106080;1251;71696;-45
2023/11/18 00:27:40;;;;;;;33.00;18.40;;;;;;;-147.86;100.00;50911.34;106046;1250;60428;-47
2023/11/18 00:30:10;;;;;;;33.30;17.80;;;;;;;-147.86;100.00;50906.24;106059;1249;60405;-47
2023/11/18 00:32:39;;;;;;;27.10;18.30;;;;;;;-147.86;100.00;50913.70;106088;1250;73806;-45
2023/11/18 00:35:08;;;;;;;29.30;17.40;;;;;;;-147.86;100.00;50925.46;106065;1251;64846;-47
2023/11/18 00:37:35;;;;;;;28.70;17.60;;;;;;;-147.86;100.00;50911.34;105979;1251;71611;-44
2023/11/18 00:40:02;;;;;;;30.00;19.00;;;;;;;-147.86;100.00;50900.75;106062;1250;60337;-44
2023/11/18 00:42:30;;;;;;;27.80;17.70;;;;;;;-147.86;100.00;50918.40;106083;1251;60466;-46
2023/11/18 00:44:57;;;;;;;28.80;18.40;;;;;;;-147.86;100.00;50930.96;106015;1251;73814;-46
2023/11/18 00:47:24;;;;;;;27.30;17.80;;;;;;;-147.86;100.00;50921.15;106013;1250;65532;-44
2023/11/18 00:49:52;;;;;;;30.20;18.50;;;;;;;-147.86;100.00;50898.39;105985;1251;71532;-46
2023/11/18 00:52:20;;;;;;;32.10;19.30;;;;;;;-147.86;100.00;50907.80;106057;1253;60419;-47
2023/11/18 00:54:47;;;;;;;30.30;19.70;;;;;;;-147.86;100.00;50914.48;106046;1249;60437;-46
2023/11/18 00:57:14;;;;;;;31.00;18.30;;;;;;;-147.86;100.00;50910.95;105971;1255;73570;-44
2023/11/18 00:59:43;;;;;;;26.80;17.70;;;;;;;-147.86;100.00;50899.57;106050;1252;64387;-46
2023/11/18 01:02:09;;;;;;;33.60;18.60;;;;;;;-147.86;100.00;50907.81;106044;1253;72435;-45
2023/11/18 01:04:37;;;;;;;29.30;18.70;;;;;;;-147.86;100.00;50899.18;106055;1253;60481;-46
2023/11/18 01:07:04;;;;;;;38.30;21.10;;;;;;;-147.86;100.00;50887.80;106085;1251;61035;-44
2023/11/18 01:09:38;;;;;;;34.40;20.30;;;;;;;-147.86;100.00;50905.06;106033;1253;73870;-43
2023/11/18 01:12:07;;;;;;;35.70;20.10;;;;;;;-147.86;100.00;50901.53;105980;1256;65308;-46
2023/11/18 01:14:39;;;;;;;32.90;19.50;;;;;;;-147.86;100.00;50901.93;106052;1253;72838;-47
2023/11/18 01:17:09;;;;;;;32.00;20.50;;;;;;;-147.86;100.00;50903.10;106035;1253;60604;-47
2023/11/18 01:19:35;;;;;;;39.10;21.20;;;;;;;-147.86;100.00;50901.92;106106;1254;60414;-45
2023/11/18 01:22:05;;;;;;;35.20;20.10;;;;;;;-147.86;100.00;50887.40;106046;1253;73580;-45
2023/11/18 01:24:33;;;;;;;36.80;20.00;;;;;;;-147.86;100.00;50889.37;106002;1256;65460;-44
2023/11/18 01:27:00;;;;;;;30.90;19.10;;;;;;;-147.86;100.00;50884.27;105976;1251;72531;-44
2023/11/18 01:29:27;;;;;;;32.50;21.50;;;;;;;-147.86;100.00;50871.71;106139;1253;61972;-45
2023/11/18 01:31:58;;;;;;;34.00;20.50;;;;;;;-147.86;100.00;50871.32;105989;1250;60565;-46
2023/11/18 01:34:26;;;;;;;39.00;22.00;;;;;;;-147.86;100.00;50879.16;106058;1250;73655;-48
2023/11/18 01:36:53;;;;;;;38.10;21.60;;;;;;;-147.86;100.00;50868.57;106075;1253;65406;-44
2023/11/18 01:39:20;;;;;;;33.30;20.70;;;;;;;-147.86;100.00;50863.47;106047;1251;71141;-44
2023/11/18 01:41:48;;;;;;;36.20;22.80;;;;;;;-147.86;100.00;50864.65;106048;1253;60794;-46
2023/11/18 01:44:15;;;;;;;37.30;21.30;;;;;;;-147.86;100.00;50857.20;106028;1251;60476;-48
2023/11/18 01:46:45;;;;;;;35.40;21.30;;;;;;;-147.86;100.00;50853.66;105984;1251;73793;-48
2023/11/18 01:49:17;;;;;;;40.30;22.00;;;;;;;-147.86;100.00;50861.12;105840;1255;65383;-48
2023/11/18 01:51:45;;;;;;;34.30;20.80;;;;;;;-147.86;100.00;50855.23;106101;1253;72557;-46
2023/11/18 01:54:15;;;;;;;30.50;19.40;;;;;;;-147.86;100.00;50845.43;105965;1250;61881;-47
2023/11/18 01:56:43;;;;;;;31.80;20.30;;;;;;;-147.86;100.00;50842.29;105918;1251;60441;-48
2023/11/18 01:59:17;;;;;;;39.20;21.00;;;;;;;-147.86;100.00;50844.64;105869;1251;73845;-44
2023/11/18 02:01:49;;;;;;;37.40;19.90;;;;;;;-147.86;100.00;50844.64;105971;1256;65919;-44
2023/11/18 02:04:19;;;;;;;30.80;19.90;;;;;;;-147.86;100.00;50857.20;106099;1254;71082;-45
2023/11/18 02:06:47;;;;;;;31.30;20.00;;;;;;;-147.86;100.00;50845.04;106033;1254;61166;-46
2023/11/18 02:09:18;;;;;;;35.20;19.10;;;;;;;-147.86;100.00;50842.29;106019;1251;60455;-52
2023/11/18 02:11:57;;;;;;;31.40;19.20;;;;;;;-147.86;100.00;50846.21;106073;1253;73867;-46
2023/11/18 02:14:26;;;;;;;35.40;19.60;;;;;;;-147.86;100.00;50840.32;106035;1251;63516;-46
2023/11/18 02:16:53;;;;;;;34.30;19.70;;;;;;;-147.86;100.00;50844.64;105971;1254;72705;-44
2023/11/18 02:19:24;;;;;;;35.60;20.30;;;;;;;-147.86;100.00;50851.31;105882;1253;61129;-44
2023/11/18 02:21:53;;;;;;;35.30;20.40;;;;;;;-147.86;100.00;50842.68;105985;1251;60913;-44
2023/11/18 02:24:29;;;;;;;33.10;20.20;;;;;;;-147.86;100.00;50852.49;106046;1251;73625;-43
2023/11/18 02:26:58;;;;;;;37.30;19.90;;;;;;;-147.86;100.00;50844.25;106079;1253;64169;-45
2023/11/18 02:29:31;;;;;;;35.60;20.90;;;;;;;-147.86;100.00;50842.29;105942;1255;72674;-45
2023/11/18 02:32:03;;;;;;;39.40;21.00;;;;;;;-147.86;100.00;50835.23;105942;1255;60339;-46
2023/11/18 02:34:31;;;;;;;38.90;22.20;;;;;;;-147.86;100.00;50843.46;105984;1251;60443;-45
2023/11/18 02:37:01;;;;;;;39.10;21.00;;;;;;;-147.86;100.00;50821.10;105970;1256;73840;-45
2023/11/18 02:39:42;;;;;;;36.20;20.50;;;;;;;-147.86;100.00;50821.88;105972;1251;65503;-47
2023/11/18 02:42:09;;;;;;;38.20;22.40;;;;;;;-147.86;100.00;50809.33;106051;1251;71683;-45
2023/11/18 02:44:38;;;;;;;30.10;19.90;;;;;;;-147.86;100.00;50806.19;106046;1250;60447;-44
2023/11/18 02:47:05;;;;;;;38.50;22.10;;;;;;;-147.86;100.00;50809.33;105823;1251;60529;-44
2023/11/18 02:49:34;;;;;;;37.90;21.90;;;;;;;-147.86;100.00;50807.76;106074;1251;71457;-44
2023/11/18 02:52:02;;;;;;;35.00;20.00;;;;;;;-147.86;100.00;50808.15;106086;1251;64351;-44
2023/11/18 02:54:29;;;;;;;46.80;20.80;;;;;;;-147.86;100.00;50789.32;106068;1251;72620;-43
2023/11/18 02:56:57;;;;;;;36.40;21.60;;;;;;;-147.86;100.00;50771.67;105814;1253;337822;-44
2023/11/18 03:01:44;;;;;;;37.30;21.60;;;;;;;-147.86;100.00;50497.50;102446;1295;615575;-46
2023/11/18 03:04:13;;;;;;;37.40;20.50;;;;;;;-147.86;100.00;50782.65;105167;1264;60984;-45
2023/11/18 03:06:41;;;;;;;34.40;20.00;;;;;;;-147.86;100.00;50779.91;105145;1269;59221;-47
2023/11/18 03:09:10;;;;;;;40.70;22.60;;;;;;;-147.86;100.00;50742.64;105190;1264;72047;-44
2023/11/18 03:11:37;;;;;;;39.90;22.40;;;;;;;-147.86;100.00;50735.97;104927;1271;65480;-46
2023/11/18 03:14:04;;;;;;;40.40;22.60;;;;;;;-147.86;100.00;50721.84;105000;1264;224216;-45
2023/11/18 03:16:31;;;;;;;36.30;20.60;;;;;;;-147.86;100.00;50722.63;105228;1266;60150;-44
2023/11/18 03:18:58;;;;;;;34.80;21.30;;;;;;;-147.86;100.00;50699.09;105220;1263;60173;-44
2023/11/18 03:21:26;;;;;;;36.40;20.00;;;;;;;-147.86;100.00;50704.58;105165;1268;72266;-46
2023/11/18 03:23:53;;;;;;;34.90;20.70;;;;;;;-147.86;100.00;50690.85;105098;1269;65533;-45
2023/11/18 03:26:21;;;;;;;37.60;21.00;;;;;;;-147.86;100.00;50696.73;105076;1263;73054;-47
2023/11/18 03:28:48;;;;;;;34.00;21.10;;;;;;;-147.86;100.00;50696.73;105202;1267;62036;-44
2023/11/18 03:31:15;;;;;;;37.50;19.80;;;;;;;-147.86;100.00;50679.87;105186;1264;60173;-46
2023/11/18 03:33:42;;;;;;;35.00;19.20;;;;;;;-147.86;100.00;50664.96;105198;1264;73031;-43
2023/11/18 03:36:11;;;;;;;33.10;18.80;;;;;;;-147.86;100.00;50659.46;105184;1267;65335;-46
2023/11/18 03:38:39;;;;;;;39.90;18.80;;;;;;;-147.86;100.00;50670.45;105214;1263;72435;-45
2023/11/18 03:41:08;;;;;;;31.80;19.10;;;;;;;-147.86;100.00;50639.46;104999;1269;60829;-44
2023/11/18 03:43:35;;;;;;;33.90;18.90;;;;;;;-147.86;100.00;50642.20;105203;1263;60137;-46
2023/11/18 03:46:02;;;;;;;30.40;17.80;;;;;;;-147.86;100.00;50638.28;105223;1267;73002;-44
2023/11/18 03:48:30;;;;;;;32.40;19.30;;;;;;;-147.86;100.00;50619.05;105177;1263;66290;-45
2023/11/18 03:50:57;;;;;;;31.70;18.90;;;;;;;-147.86;100.00;50617.09;104974;1263;72646;-44
2023/11/18 03:53:23;;;;;;;31.10;18.60;;;;;;;-147.86;100.00;50600.62;105193;1267;61028;-46
2023/11/18 03:55:51;;;;;;;33.60;18.30;;;;;;;-147.86;100.00;50589.24;105208;1263;60150;-44
2023/11/18 03:58:18;;;;;;;28.80;18.50;;;;;;;-147.86;100.00;50584.92;105209;1264;72964;-44
2023/11/18 04:00:45;;;;;;;28.30;17.30;;;;;;;-147.86;100.00;50557.46;105118;1268;64491;-43
2023/11/18 04:03:12;;;;;;;28.90;17.30;;;;;;;-147.86;100.00;50535.49;105190;1264;72628;-44
2023/11/18 04:05:39;;;;;;;33.40;19.50;;;;;;;-147.86;100.00;50520.98;105216;1263;60071;-44
2023/11/18 04:08:06;;;;;;;30.80;18.40;;;;;;;-147.86;100.00;50517.84;105232;1263;60368;-43
2023/11/18 04:10:33;;;;;;;30.10;16.70;;;;;;;-147.86;100.00;50493.13;105259;1262;72956;-47
2023/11/18 04:13:00;;;;;;;31.70;16.00;;;;;;;-147.86;100.00;50486.85;105212;1265;64494;-44
2023/11/18 04:15:27;;;;;;;32.50;17.40;;;;;;;-147.86;100.00;50467.23;105043;1261;72652;-44
2023/11/18 04:17:55;;;;;;;23.80;15.90;;;;;;;-147.86;100.00;50431.54;105223;1261;62342;-45
2023/11/18 04:20:21;;;;;;;28.80;16.30;;;;;;;-147.86;100.00;50367.98;105297;1260;60291;-43
2023/11/18 04:22:48;;;;;;;29.50;17.10;;;;;;;-147.86;100.00;50344.05;105532;1257;72772;-43
2023/11/18 04:25:15;;;;;;;27.50;15.60;;;;;;;-147.86;100.00;50317.38;105622;1261;65358;-45
2023/11/18 04:27:43;;;;;;;23.00;15.40;;;;;;;-147.86;100.00;50291.49;105573;1257;72597;-43
2023/11/18 04:30:13;;;;;;;22.80;13.70;;;;;;;-147.86;100.00;50249.91;105609;1263;60966;-45
2023/11/18 04:32:42;;;;;;;19.80;12.50;;;;;;;-147.86;100.00;50233.82;105652;1262;59612;-47
2023/11/18 04:35:09;;;;;;;20.60;13.10;;;;;;;-147.86;100.00;50206.76;105549;1257;73138;-46
2023/11/18 04:37:36;;;;;;;19.50;13.00;;;;;;;-147.86;100.00;50200.88;105210;1261;65543;-44
2023/11/18 04:40:06;;;;;;;20.80;12.20;;;;;;;-147.86;100.00;50177.33;105318;1257;72612;-49
2023/11/18 04:42:33;;;;;;;16.20;10.90;;;;;;;-147.86;100.00;50138.11;105672;1257;59823;-45
2023/11/18 04:45:00;;;;;;;13.60;9.60;;;;;;;-147.86;100.00;50097.32;105553;1257;60286;-47
2023/11/18 04:47:27;;;;;;;14.00;10.80;;;;;;;-147.86;100.00;50062.01;105635;1257;72934;-48
2023/11/18 04:49:54;;;;;;;16.60;11.60;;;;;;;-147.86;100.00;50021.21;105611;1263;65437;-45
2023/11/18 04:52:21;;;;;;;15.80;11.60;;;;;;;-147.86;100.00;50011.80;105644;1257;72621;-43
2023/11/18 04:54:48;;;;;;;14.70;10.60;;;;;;;-147.86;100.00;49983.55;105753;1257;60991;-43
2023/11/18 04:57:15;;;;;;;15.90;11.00;;;;;;;-147.86;100.00;49972.57;105583;1257;60197;-45
2023/11/18 04:59:43;;;;;;;30.10;12.80;;;;;;;-147.86;100.00;49965.12;105657;1259;73004;-47
2023/11/18 05:02:11;;;;;;;15.30;11.40;;;;;;;-147.86;100.00;49969.05;105582;1262;65481;-44
2023/11/18 05:04:38;;;;;;;17.10;11.30;;;;;;;-147.86;100.00;49958.85;105599;1261;72648;-45
2023/11/18 05:07:06;;;;;;;15.50;10.70;;;;;;;-147.86;100.00;49950.61;105575;1261;61205;-47
2023/11/18 05:09:34;;;;;;;15.60;10.70;;;;;;;-147.86;100.00;49946.69;105698;1263;60028;-44
2023/11/18 05:12:01;;;;;;;15.50;11.60;;;;;;;-147.86;100.00;49947.48;105619;1259;71914;-46
2023/11/18 05:14:28;;;;;;;17.10;11.80;;;;;;;-147.86;100.00;49932.96;105651;1261;65703;-44
2023/11/18 05:16:55;;;;;;;22.40;13.70;;;;;;;-147.86;100.00;49916.09;105587;1257;72664;-45
2023/11/18 05:19:23;;;;;;;15.10;11.10;;;;;;;-147.86;100.00;49906.68;105673;1263;61070;-45
2023/11/18 05:21:50;;;;;;;19.30;12.40;;;;;;;-147.86;100.00;49913.35;105631;1257;60308;-44
2023/11/18 05:24:17;;;;;;;18.30;12.30;;;;;;;-147.86;100.00;49902.36;105623;1262;73086;-44
2023/11/18 05:26:44;;;;;;;17.20;11.80;;;;;;;-147.86;100.00;49922.76;105619;1263;65458;-43
2023/11/18 05:29:16;;;;;;;17.20;12.00;;;;;;;-147.86;100.00;49902.36;105622;1257;72567;-43
2023/11/18 05:31:43;;;;;;;18.20;12.90;;;;;;;-147.86;100.00;49891.77;105611;1263;60106;-44
2023/11/18 05:34:10;;;;;;;17.60;12.80;;;;;;;-147.86;100.00;49893.34;105654;1257;59640;-43
2023/11/18 05:36:37;;;;;;;21.10;13.50;;;;;;;-147.86;100.00;49863.93;105599;1262;72979;-45
2023/11/18 05:39:05;;;;;;;18.50;12.20;;;;;;;-147.86;100.00;49876.87;105597;1263;65366;-46
2023/11/18 05:41:34;;;;;;;20.60;13.40;;;;;;;-147.86;100.00;49895.30;105588;1261;71524;-45
2023/11/18 05:44:01;;;;;;;18.10;12.70;;;;;;;-147.86;100.00;49907.46;105569;1263;61931;-43
2023/11/18 05:46:32;;;;;;;20.00;13.70;;;;;;;-147.86;100.00;49898.84;105631;1257;60278;-47
2023/11/18 05:49:05;;;;;;;18.00;12.30;;;;;;;-147.86;100.00;49887.07;105588;1258;72974;-43
2023/11/18 05:51:32;;;;;;;21.70;12.60;;;;;;;-147.86;100.00;49883.54;105622;1262;64408;-46
2023/11/18 05:53:59;;;;;;;20.70;12.60;;;;;;;-147.86;100.00;49875.70;105666;1258;72620;-46
2023/11/18 05:56:26;;;;;;;23.00;13.00;;;;;;;-147.86;100.00;49858.04;105604;1261;61901;-43
2023/11/18 05:58:53;;;;;;;17.60;12.60;;;;;;;-147.86;100.00;49867.46;105560;1257;60200;-44
2023/11/18 06:01:20;;;;;;;30.50;14.70;;;;;;;-147.86;100.00;49865.49;105645;1263;73031;-42
2023/11/18 06:03:47;;;;;;;21.70;14.20;;;;;;;-147.86;100.00;49863.53;105638;1263;65376;-46
2023/11/18 06:06:16;;;;;;;22.10;14.30;;;;;;;-147.86;100.00;49847.84;105569;1257;72680;-42
2023/11/18 06:08:46;;;;;;;26.30;14.10;;;;;;;-147.86;100.00;49869.81;105588;1263;61241;-44
2023/11/18 06:11:14;;;;;;;21.50;14.00;;;;;;;-147.86;100.00;49860.40;105683;1257;60156;-43
2023/11/18 06:13:48;;;;;;;23.30;15.50;;;;;;;-147.86;100.00;49844.71;105586;1261;71890;-42
2023/11/18 06:16:24;;;;;;;22.50;14.60;;;;;;;-147.86;100.00;49854.12;105685;1260;65350;-44
2023/11/18 06:18:52;;;;;;;26.70;16.60;;;;;;;-147.86;100.00;49849.02;105574;1262;72547;-45
2023/11/18 06:21:24;;;;;;;30.20;16.30;;;;;;;-147.86;100.00;49846.66;105615;1261;61194;-44
2023/11/18 06:23:51;;;;;;;28.70;16.30;;;;;;;-147.86;100.00;49846.66;105636;1257;60625;-47
2023/11/18 06:26:19;;;;;;;25.90;16.10;;;;;;;-147.86;100.00;49849.02;105572;1258;72956;-47
2023/11/18 06:28:48;;;;;;;31.60;16.70;;;;;;;-147.86;100.00;49845.10;105619;1263;65464;-46
2023/11/18 06:31:15;;;;;;;26.60;16.70;;;;;;;-147.86;100.00;49855.30;105608;1257;72718;-46
2023/11/18 06:33:42;;;;;;;27.50;16.90;;;;;;;-147.86;100.00;49845.88;105612;1261;61185;-44
2023/11/18 06:36:17;;;;;;;31.20;17.00;;;;;;;-147.86;100.00;49850.20;105636;1257;60329;-45
2023/11/18 06:38:49;;;;;;;30.20;18.10;;;;;;;-147.86;100.00;49848.24;105612;1261;72683;-47
2023/11/18 06:41:17;;;;;;;31.00;18.40;;;;;;;-147.86;100.00;49872.55;105581;1260;65388;-45
2023/11/18 06:43:51;;;;;;;31.90;18.60;;;;;;;-147.86;100.00;49861.96;105637;1257;71202;-47
2023/11/18 06:46:22;;;;;;;31.80;18.30;;;;;;;-147.86;100.00;49854.91;105579;1263;61203;-47
2023/11/18 06:48:54;;;;;;;29.40;17.40;;;;;;;-147.86;100.00;49878.83;105699;1257;60270;-44
2023/11/18 06:51:24;;;;;;;34.00;17.50;;;;;;;-147.86;100.00;49887.46;105625;1261;72873;-46
2023/11/18 06:53:51;;;;;;;32.10;17.90;;;;;;;-147.86;100.00;49901.98;105611;1263;64121;-44
2023/11/18 06:56:18;;;;;;;29.40;16.30;;;;;;;-147.86;100.00;49880.01;105612;1260;71415;-45
2023/11/18 06:58:45;;;;;;;30.10;16.60;;;;;;;-147.86;100.00;49885.50;105583;1261;59618;-45
2023/11/18 07:01:14;;;;;;;33.50;17.80;;;;;;;-147.86;100.00;49897.27;105571;1257;60242;-45
2023/11/18 07:03:44;;;;;;;30.10;16.50;;;;;;;-147.86;100.00;49899.62;105610;1258;72784;-46
2023/11/18 07:06:14;;;;;;;27.30;15.50;;;;;;;-147.86;100.00;49894.52;105610;1263;64026;-45
2023/11/18 07:08:40;;;;;;;24.90;14.80;;;;;;;-147.86;100.00;49875.30;105612;1257;72710;-48
2023/11/18 07:11:07;;;;;;;23.90;13.70;;;;;;;-147.86;100.00;49862.36;105625;1262;61987;-45
2023/11/18 07:13:34;;;;;;;23.40;12.70;;;;;;;-147.86;100.00;49840.79;105586;1257;60479;-46
2023/11/18 07:16:03;;;;;;;25.50;14.70;;;;;;;-147.86;100.00;49801.95;105622;1257;73904;-46
2023/11/18 07:18:31;;;;;;;24.70;14.50;;;;;;;-147.86;100.00;49760.77;105584;1260;65620;-43
2023/11/18 07:21:04;;;;;;;21.00;13.70;;;;;;;-147.86;100.00;49723.12;105583;1257;72652;-42
2023/11/18 07:23:32;;;;;;;23.30;13.30;;;;;;;-147.86;100.00;49694.48;105609;1260;61129;-45
2023/11/18 07:25:59;;;;;;;22.30;12.30;;;;;;;-147.86;100.00;49658.01;105670;1258;60571;-43
2023/11/18 07:28:27;;;;;;;19.40;12.20;;;;;;;-147.86;100.00;49663.11;105633;1263;73789;-45
2023/11/18 07:30:54;;;;;;;22.60;13.00;;;;;;;-147.86;100.00;49633.69;105637;1262;65650;-45
2023/11/18 07:33:22;;;;;;;22.50;13.00;;;;;;;-147.86;100.00;49612.90;105559;1259;72661;-44
2023/11/18 07:35:49;;;;;;;25.80;14.20;;;;;;;-147.86;100.00;49598.79;105632;1262;61055;-45
2023/11/18 07:38:17;;;;;;;25.50;14.70;;;;;;;-147.86;100.00;49603.10;105630;1257;60433;-47
2023/11/18 07:40:47;;;;;;;28.30;15.10;;;;;;;-147.86;100.00;49568.97;105577;1257;71441;-45
2023/11/18 07:43:17;;;;;;;28.90;15.30;;;;;;;-147.86;100.00;49522.69;105651;1263;64566;-44
2023/11/18 07:45:47;;;;;;;27.80;15.60;;;;;;;-147.86;100.00;49533.29;105639;1257;72530;-47
2023/11/18 07:48:16;;;;;;;28.40;16.50;;;;;;;-147.86;100.00;49538.77;105681;1262;61166;-47
2023/11/18 07:50:49;;;;;;;30.20;15.50;;;;;;;-147.86;100.00;49544.27;105608;1259;60439;-46
2023/11/18 07:53:16;;;;;;;30.90;16.30;;;;;;;-147.86;100.00;49554.86;105586;1258;74054;-46
2023/11/18 07:55:44;;;;;;;27.80;15.70;;;;;;;-147.86;100.00;49577.21;105593;1257;65448;-46
2023/11/18 07:58:12;;;;;;;29.60;17.60;;;;;;;-147.86;100.00;49590.15;105633;1261;72641;-45
2023/11/18 08:00:42;;;;;;;33.20;18.00;;;;;;;-147.86;100.00;49597.61;105537;1263;61167;-44
2023/11/18 08:03:13;;;;;;;31.40;17.50;;;;;;;-147.86;100.00;49623.10;105641;1257;60412;-45
2023/11/18 08:05:43;;;;;;;31.40;17.70;;;;;;;-147.86;100.00;49645.06;105582;1257;73714;-45
2023/11/18 08:08:13;;;;;;;33.40;17.10;;;;;;;-147.86;100.00;49660.36;105605;1263;65549;-44
2023/11/18 08:10:42;;;;;;;31.00;17.30;;;;;;;-147.86;100.00;49669.38;105632;1257;72599;-46
2023/11/18 08:13:10;;;;;;;40.80;18.80;;;;;;;-147.86;100.00;49670.56;105624;1262;61950;-46
2023/11/18 08:15:41;;;;;;;36.70;17.50;;;;;;;-147.86;100.00;49681.15;105627;1263;60543;-48
2023/11/18 08:18:11;;;;;;;29.40;15.60;;;;;;;-147.86;100.00;49641.93;105648;1261;73858;-45
2023/11/18 08:20:39;;;;;;;30.70;15.60;;;;;;;-147.86;100.00;49634.87;105626;1261;65401;-44
2023/11/18 08:23:05;;;;;;;28.00;14.90;;;;;;;-147.86;100.00;49590.55;105616;1257;72689;-47
2023/11/18 08:25:35;;;;;;;28.60;14.20;;;;;;;-147.86;100.00;49566.23;105627;1257;60977;-47
2023/11/18 08:28:04;;;;;;;26.20;14.10;;;;;;;-147.86;100.00;49528.18;105590;1257;60418;-47
2023/11/18 08:30:33;;;;;;;28.00;14.40;;;;;;;-147.86;100.00;49499.95;105729;1258;74225;-44
2023/11/18 08:33:00;;;;;;;28.20;13.40;;;;;;;-147.86;100.00;49481.51;105633;1263;65711;-44
2023/11/18 08:35:32;;;;;;;31.30;12.60;;;;;;;-147.86;100.00;49432.49;105624;1257;71267;-46
2023/11/18 08:38:00;;;;;;;22.90;13.30;;;;;;;-147.86;100.00;49403.86;105597;1261;61018;-44
2023/11/18 08:40:27;;;;;;;28.50;14.40;;;;;;;-147.86;100.00;49387.39;105616;1257;60798;-43
2023/11/18 08:42:55;;;;;;;22.50;13.00;;;;;;;-147.86;100.00;49371.30;105607;1262;72857;-45
2023/11/18 08:45:29;;;;;;;25.60;15.00;;;;;;;-147.86;100.00;49351.30;105626;1258;65322;-47
2023/11/18 08:47:56;;;;;;;26.60;15.10;;;;;;;-147.86;100.00;49325.03;105604;1262;72584;-47
2023/11/18 08:50:24;;;;;;;30.60;15.90;;;;;;;-147.86;100.00;49329.34;105671;1262;60918;-46
2023/11/18 08:52:57;;;;;;;26.80;15.50;;;;;;;-147.86;100.00;49295.22;105637;1258;60460;-46
2023/11/18 08:55:41;;;;;;;28.60;13.50;;;;;;;-147.86;100.00;49309.73;105577;1263;73823;-47
2023/11/18 08:58:27;;;;;;;21.20;13.20;;;;;;;-147.86;100.00;49291.70;105622;1263;65429;-45
2023/11/18 09:01:13;;;;;;;18.90;11.50;;;;;;;-147.86;100.00;49276.01;105614;1258;72677;-46
2023/11/18 09:03:48;;;;;;;17.30;11.40;;;;;;;-147.86;100.00;49250.91;105627;1257;60449;-44
2023/11/18 09:06:18;;;;;;;19.90;11.50;;;;;;;-147.86;100.00;49201.10;105630;1262;60620;-45
2023/11/18 09:08:52;;;;;;;23.00;12.40;;;;;;;-147.86;100.00;49168.95;105582;1263;72889;-43
2023/11/18 09:11:19;;;;;;;24.40;14.80;;;;;;;-147.86;100.00;49139.52;105598;1261;65489;-45
2023/11/18 09:13:53;;;;;;;26.90;16.50;;;;;;;-147.86;100.00;49133.25;105635;1263;72518;-47
2023/11/18 09:16:27;;;;;;;26.90;15.30;;;;;;;-147.86;100.00;49112.87;105635;1256;61020;-45
2023/11/18 09:18:54;;;;;;;23.00;14.80;;;;;;;-147.86;100.00;49107.76;105438;1258;60444;-43
2023/11/18 09:21:24;;;;;;;27.00;16.00;;;;;;;-147.86;100.00;49102.27;105593;1259;73857;-47
2023/11/18 09:23:51;;;;;;;30.90;17.20;;;;;;;-147.86;100.00;49103.85;105614;1263;65448;-46
2023/11/18 09:26:18;;;;;;;25.50;16.40;;;;;;;-147.86;100.00;49124.63;105622;1257;72762;-46
2023/11/18 09:28:46;;;;;;;26.90;17.40;;;;;;;-147.86;100.00;49160.32;105628;1262;61151;-45
2023/11/18 09:31:13;;;;;;;27.40;16.80;;;;;;;-147.86;100.00;49186.98;105607;1261;60824;-44
2023/11/18 09:33:46;;;;;;;31.40;17.30;;;;;;;-147.86;100.00;49202.67;105594;1264;73610;-44
2023/11/18 09:36:13;;;;;;;28.20;17.60;;;;;;;-147.86;100.00;49218.75;105416;1262;65279;-46
2023/11/18 09:38:40;;;;;;;30.10;18.60;;;;;;;-147.86;100.00;49263.85;105181;1261;72462;-48
2023/11/18 09:41:11;;;;;;;26.30;15.30;;;;;;;-147.86;100.00;49315.23;105441;1263;61293;-49
2023/11/18 09:43:48;;;;;;;22.30;14.40;;;;;;;-147.86;100.00;49303.46;105607;1258;60440;-49
2023/11/18 09:46:23;;;;;;;24.30;14.50;;;;;;;-147.86;100.00;49300.71;105717;1261;73860;-46
2023/11/18 09:48:53;;;;;;;25.40;15.10;;;;;;;-147.86;100.00;49267.77;105585;1258;64585;-43
2023/11/18 09:51:21;;;;;;;26.50;14.80;;;;;;;-147.86;100.00;49206.20;105609;1261;72432;-46
2023/11/18 09:54:00;;;;;;;28.00;14.40;;;;;;;-147.86;100.00;49162.27;105616;1259;60943;-45
2023/11/18 09:56:55;;;;;;;28.70;14.90;;;;;;;-147.86;100.00;49148.55;105611;1257;60450;-46
2023/11/18 09:59:35;;;;;;;27.50;16.50;;;;;;;-147.86;100.00;49124.63;105593;1262;73924;-45
2023/11/18 10:02:04;;;;;;;27.70;16.50;;;;;;;-147.86;100.00;49140.31;105605;1263;65504;-46
2023/11/18 10:04:31;;;;;;;29.70;16.40;;;;;;;-147.86;100.00;49132.47;105606;1263;72608;-43
2023/11/18 10:06:58;;;;;;;31.10;17.10;;;;;;;-147.86;100.00;49151.69;105641;1263;61026;-43
2023/11/18 10:09:37;;;;;;;36.20;19.60;;;;;;;-147.86;100.00;49169.34;105506;1260;60472;-43
2023/11/18 10:12:07;;;;;;;24.40;15.90;;;;;;;-147.86;100.00;49200.71;105647;1262;73818;-45
2023/11/18 10:14:35;;;;;;;24.10;16.30;;;;;;;-147.86;100.00;49195.22;105670;1263;65346;-47
2023/11/18 10:17:09;;;;;;;57.30;35.10;;;;;;;-147.86;100.00;49205.80;105592;1262;72691;-44
2023/11/18 10:19:59;;;;;;;35.20;21.40;;;;;;;-147.86;100.00;49228.55;105613;1263;60578;-43
2023/11/18 10:22:29;;;;;;;34.50;20.00;;;;;;;-147.86;100.00;49244.63;105611;1257;60529;-44
2023/11/18 10:24:56;;;;;;;31.30;18.60;;;;;;;-147.86;100.00;49237.96;105597;1262;73761;-41
2023/11/18 10:27:27;;;;;;;29.90;17.30;;;;;;;-147.86;100.00;49268.95;105649;1262;64185;-44
2023/11/18 10:29:57;;;;;;;25.30;14.50;;;;;;;-147.86;100.00;49247.77;105608;1263;72490;-46
2023/11/18 10:32:27;;;;;;;27.40;15.50;;;;;;;-147.86;100.00;49276.40;105625;1263;61117;-48
2023/11/18 10:34:56;;;;;;;25.60;14.80;;;;;;;-147.86;100.00;49265.41;105621;1259;60461;-44
2023/11/18 10:37:30;;;;;;;25.00;14.30;;;;;;;-147.86;100.00;49268.55;105605;1263;72718;-47
2023/11/18 10:39:57;;;;;;;37.00;18.40;;;;;;;-147.86;100.00;49235.61;105471;1261;65345;-46
2023/11/18 10:42:32;;;;;;;25.00;14.40;;;;;;;-147.86;100.00;49204.63;105364;1262;72689;-48
2023/11/18 10:45:02;;;;;;;21.30;12.80;;;;;;;-147.86;100.00;49181.49;105117;1263;61117;-43
2023/11/18 10:47:33;;;;;;;16.80;11.30;;;;;;;-147.86;100.00;49161.10;105366;1263;60530;-44
2023/11/18 10:50:01;;;;;;;20.70;11.50;;;;;;;-147.86;100.00;49144.63;105530;1257;73778;-42
2023/11/18 10:52:31;;;;;;;42.30;21.50;;;;;;;-147.86;100.00;49108.55;105239;1264;65636;-45
2023/11/18 10:55:06;;;;;;;28.50;16.80;;;;;;;-147.86;100.00;49085.41;105619;1263;72644;-51
2023/11/18 10:57:35;;;;;;;40.20;20.30;;;;;;;-147.86;100.00;49078.75;105628;1263;61341;-47